sensor_id;sensor_type;location;lat;lon;timestamp;P1;durP1;ratioP1;P2;durP2;ratioP2
62693;SDS011;48759;52.544;13.418;2023-06-14T00:00:36;5.03;;;3.63;;
62693;SDS011;48759;52.544;13.418;2023-06-14T00:03:06;5.00;;;3.80;;
62693;SDS011;48759;52.544;13.418;2023-06-14T00:05:33;4.90;;;4.00;;
62693;SDS011;48759;52.544;13.418;2023-06-14T00:08:05;7.03;;;4.70;;
62693;SDS011;48759;52.544;13.418;2023-06-14T00:10:33;4.03;;;3.63;;
62693;SDS011;48759;52.544;13.418;2023-06-14T00:13:00;7.30;;;4.00;;
62693;SDS011;48759;52.544;13.418;2023-06-14T00:15:27;4.87;;;3.70;;
62693;SDS011;48759;52.544;13.418;2023-06-14T00:17:56;4.07;;;3.67;;
62693;SDS011;48759;52.544;13.418;2023-06-14T00:20:25;4.57;;;4.03;;
62693;SDS011;48759;52.544;13.418;2023-06-14T00:22:52;6.00;;;4.23;;
62693;SDS011;48759;52.544;13.418;2023-06-14T00:25:21;9.00;;;4.17;;
62693;SDS011;48759;52.544;13.418;2023-06-14T00:27:50;6.70;;;4.23;;
62693;SDS011;48759;52.544;13.418;2023-06-14T00:30:17;6.30;;;3.93;;
62693;SDS011;48759;52.544;13.418;2023-06-14T00:32:43;8.20;;;4.17;;
62693;SDS011;48759;52.544;13.418;2023-06-14T00:35:10;4.97;;;4.47;;
62693;SDS011;48759;52.544;13.418;2023-06-14T00:37:37;5.30;;;4.00;;
62693;SDS011;48759;52.544;13.418;2023-06-14T00:40:04;8.90;;;4.20;;
62693;SDS011;48759;52.544;13.418;2023-06-14T00:42:34;4.23;;;3.83;;
62693;SDS011;48759;52.544;13.418;2023-06-14T00:45:00;7.33;;;4.57;;
62693;SDS011;48759;52.544;13.418;2023-06-14T00:47:27;4.83;;;4.33;;
62693;SDS011;48759;52.544;13.418;2023-06-14T00:49:54;4.47;;;3.73;;
62693;SDS011;48759;52.544;13.418;2023-06-14T00:52:21;6.90;;;4.30;;
62693;SDS011;48759;52.544;13.418;2023-06-14T00:54:49;5.20;;;4.67;;
62693;SDS011;48759;52.544;13.418;2023-06-14T00:57:16;5.83;;;4.40;;
62693;SDS011;48759;52.544;13.418;2023-06-14T00:59:44;5.73;;;4.30;;
62693;SDS011;48759;52.544;13.418;2023-06-14T01:02:12;5.10;;;4.70;;
62693;SDS011;48759;52.544;13.418;2023-06-14T01:04:40;4.87;;;4.13;;
62693;SDS011;48759;52.544;13.418;2023-06-14T01:07:11;4.37;;;3.90;;
62693;SDS011;48759;52.544;13.418;2023-06-14T01:09:48;5.70;;;4.63;;
62693;SDS011;48759;52.544;13.418;2023-06-14T01:12:25;5.00;;;4.60;;
62693;SDS011;48759;52.544;13.418;2023-06-14T01:14:59;5.27;;;4.77;;
62693;SDS011;48759;52.544;13.418;2023-06-14T01:17:27;7.63;;;4.77;;
62693;SDS011;48759;52.544;13.418;2023-06-14T01:19:57;7.17;;;4.80;;
62693;SDS011;48759;52.544;13.418;2023-06-14T01:22:25;6.77;;;4.80;;
62693;SDS011;48759;52.544;13.418;2023-06-14T01:24:53;6.93;;;5.43;;
62693;SDS011;48759;52.544;13.418;2023-06-14T01:27:21;8.90;;;4.87;;
62693;SDS011;48759;52.544;13.418;2023-06-14T01:29:53;6.60;;;4.60;;
62693;SDS011;48759;52.544;13.418;2023-06-14T01:32:22;7.80;;;4.80;;
62693;SDS011;48759;52.544;13.418;2023-06-14T01:34:50;6.40;;;5.30;;
62693;SDS011;48759;52.544;13.418;2023-06-14T01:37:17;7.67;;;5.40;;
62693;SDS011;48759;52.544;13.418;2023-06-14T01:39:45;7.83;;;6.20;;
62693;SDS011;48759;52.544;13.418;2023-06-14T01:42:16;6.93;;;4.77;;
62693;SDS011;48759;52.544;13.418;2023-06-14T01:44:44;6.40;;;5.53;;
62693;SDS011;48759;52.544;13.418;2023-06-14T01:47:12;8.20;;;5.50;;
62693;SDS011;48759;52.544;13.418;2023-06-14T01:49:40;6.93;;;6.00;;
62693;SDS011;48759;52.544;13.418;2023-06-14T01:52:07;10.97;;;5.73;;
62693;SDS011;48759;52.544;13.418;2023-06-14T01:54:35;7.80;;;5.37;;
62693;SDS011;48759;52.544;13.418;2023-06-14T01:57:07;6.17;;;5.53;;
62693;SDS011;48759;52.544;13.418;2023-06-14T01:59:35;7.57;;;5.80;;
62693;SDS011;48759;52.544;13.418;2023-06-14T02:02:02;8.90;;;5.63;;
62693;SDS011;48759;52.544;13.418;2023-06-14T02:04:29;7.57;;;6.10;;
62693;SDS011;48759;52.544;13.418;2023-06-14T02:06:56;8.80;;;6.33;;
62693;SDS011;48759;52.544;13.418;2023-06-14T02:09:22;8.73;;;6.70;;
62693;SDS011;48759;52.544;13.418;2023-06-14T02:11:50;6.93;;;6.07;;
62693;SDS011;48759;52.544;13.418;2023-06-14T02:14:16;8.50;;;6.23;;
62693;SDS011;48759;52.544;13.418;2023-06-14T02:16:45;14.53;;;6.90;;
62693;SDS011;48759;52.544;13.418;2023-06-14T02:19:14;10.63;;;6.90;;
62693;SDS011;48759;52.544;13.418;2023-06-14T02:21:41;11.37;;;6.90;;
62693;SDS011;48759;52.544;13.418;2023-06-14T02:24:08;10.80;;;6.53;;
62693;SDS011;48759;52.544;13.418;2023-06-14T02:26:35;11.23;;;6.37;;
62693;SDS011;48759;52.544;13.418;2023-06-14T02:29:02;9.27;;;7.20;;
62693;SDS011;48759;52.544;13.418;2023-06-14T02:31:30;8.33;;;6.60;;
62693;SDS011;48759;52.544;13.418;2023-06-14T02:33:58;8.40;;;7.03;;
62693;SDS011;48759;52.544;13.418;2023-06-14T02:36:25;12.73;;;7.43;;
62693;SDS011;48759;52.544;13.418;2023-06-14T02:38:51;13.00;;;7.80;;
62693;SDS011;48759;52.544;13.418;2023-06-14T02:41:19;14.50;;;8.40;;
62693;SDS011;48759;52.544;13.418;2023-06-14T02:43:45;9.50;;;7.90;;
62693;SDS011;48759;52.544;13.418;2023-06-14T02:46:12;11.63;;;7.80;;
62693;SDS011;48759;52.544;13.418;2023-06-14T02:48:39;9.47;;;6.80;;
62693;SDS011;48759;52.544;13.418;2023-06-14T02:51:07;10.27;;;7.93;;
62693;SDS011;48759;52.544;13.418;2023-06-14T02:53:34;13.40;;;6.63;;
62693;SDS011;48759;52.544;13.418;2023-06-14T02:56:01;12.93;;;7.37;;
62693;SDS011;48759;52.544;13.418;2023-06-14T02:58:28;10.57;;;7.60;;
62693;SDS011;48759;52.544;13.418;2023-06-14T03:00:55;15.30;;;7.80;;
62693;SDS011;48759;52.544;13.418;2023-06-14T03:03:22;7.87;;;6.70;;
62693;SDS011;48759;52.544;13.418;2023-06-14T03:05:49;7.50;;;6.70;;
62693;SDS011;48759;52.544;13.418;2023-06-14T03:08:18;11.00;;;7.17;;
62693;SDS011;48759;52.544;13.418;2023-06-14T03:10:45;15.90;;;7.20;;
62693;SDS011;48759;52.544;13.418;2023-06-14T03:13:12;8.10;;;7.30;;
62693;SDS011;48759;52.544;13.418;2023-06-14T03:15:39;8.70;;;7.40;;
62693;SDS011;48759;52.544;13.418;2023-06-14T03:18:09;9.37;;;7.17;;
62693;SDS011;48759;52.544;13.418;2023-06-14T03:20:37;10.20;;;7.23;;
62693;SDS011;48759;52.544;13.418;2023-06-14T03:23:04;9.93;;;8.27;;
62693;SDS011;48759;52.544;13.418;2023-06-14T03:25:33;9.17;;;7.77;;
62693;SDS011;48759;52.544;13.418;2023-06-14T03:28:00;8.87;;;7.40;;
62693;SDS011;48759;52.544;13.418;2023-06-14T03:30:27;15.13;;;7.17;;
62693;SDS011;48759;52.544;13.418;2023-06-14T03:32:55;9.53;;;7.10;;
62693;SDS011;48759;52.544;13.418;2023-06-14T03:35:22;11.70;;;7.80;;
62693;SDS011;48759;52.544;13.418;2023-06-14T03:37:49;11.30;;;7.93;;
62693;SDS011;48759;52.544;13.418;2023-06-14T03:40:17;17.47;;;9.20;;
62693;SDS011;48759;52.544;13.418;2023-06-14T03:42:47;13.23;;;9.00;;
62693;SDS011;48759;52.544;13.418;2023-06-14T03:45:13;15.03;;;9.50;;
62693;SDS011;48759;52.544;13.418;2023-06-14T03:47:40;10.70;;;8.30;;
62693;SDS011;48759;52.544;13.418;2023-06-14T03:50:07;20.60;;;8.83;;
62693;SDS011;48759;52.544;13.418;2023-06-14T03:52:34;10.90;;;8.63;;
62693;SDS011;48759;52.544;13.418;2023-06-14T03:55:01;10.30;;;8.47;;
62693;SDS011;48759;52.544;13.418;2023-06-14T03:57:29;11.67;;;8.50;;
62693;SDS011;48759;52.544;13.418;2023-06-14T03:59:57;10.53;;;8.03;;
62693;SDS011;48759;52.544;13.418;2023-06-14T04:02:24;10.33;;;8.20;;
62693;SDS011;48759;52.544;13.418;2023-06-14T04:04:53;14.63;;;8.63;;
62693;SDS011;48759;52.544;13.418;2023-06-14T04:07:20;14.93;;;8.17;;
62693;SDS011;48759;52.544;13.418;2023-06-14T04:09:48;10.47;;;9.30;;
62693;SDS011;48759;52.544;13.418;2023-06-14T04:12:14;9.93;;;7.90;;
62693;SDS011;48759;52.544;13.418;2023-06-14T04:14:41;13.50;;;9.10;;
62693;SDS011;48759;52.544;13.418;2023-06-14T04:17:09;11.50;;;8.03;;
62693;SDS011;48759;52.544;13.418;2023-06-14T04:19:36;11.40;;;7.90;;
62693;SDS011;48759;52.544;13.418;2023-06-14T04:22:03;14.60;;;8.40;;
62693;SDS011;48759;52.544;13.418;2023-06-14T04:24:30;11.27;;;7.27;;
62693;SDS011;48759;52.544;13.418;2023-06-14T04:27:00;10.53;;;8.00;;
62693;SDS011;48759;52.544;13.418;2023-06-14T04:29:27;9.23;;;7.83;;
62693;SDS011;48759;52.544;13.418;2023-06-14T04:31:54;11.77;;;7.43;;
62693;SDS011;48759;52.544;13.418;2023-06-14T04:34:25;21.83;;;9.00;;
62693;SDS011;48759;52.544;13.418;2023-06-14T04:36:54;10.87;;;8.17;;
62693;SDS011;48759;52.544;13.418;2023-06-14T04:39:23;9.60;;;7.90;;
62693;SDS011;48759;52.544;13.418;2023-06-14T04:41:50;9.90;;;8.10;;
62693;SDS011;48759;52.544;13.418;2023-06-14T04:44:21;9.70;;;7.30;;
62693;SDS011;48759;52.544;13.418;2023-06-14T04:46:49;13.50;;;8.70;;
62693;SDS011;48759;52.544;13.418;2023-06-14T04:49:16;11.73;;;9.43;;
62693;SDS011;48759;52.544;13.418;2023-06-14T04:51:45;9.90;;;8.07;;
62693;SDS011;48759;52.544;13.418;2023-06-14T04:54:16;17.00;;;8.27;;
62693;SDS011;48759;52.544;13.418;2023-06-14T04:56:43;15.43;;;8.03;;
62693;SDS011;48759;52.544;13.418;2023-06-14T04:59:11;10.50;;;8.10;;
62693;SDS011;48759;52.544;13.418;2023-06-14T05:01:39;10.53;;;9.43;;
62693;SDS011;48759;52.544;13.418;2023-06-14T05:04:06;9.60;;;7.77;;
62693;SDS011;48759;52.544;13.418;2023-06-14T05:06:33;9.23;;;7.80;;
62693;SDS011;48759;52.544;13.418;2023-06-14T05:09:02;9.83;;;7.37;;
62693;SDS011;48759;52.544;13.418;2023-06-14T05:11:29;10.17;;;7.97;;
62693;SDS011;48759;52.544;13.418;2023-06-14T05:13:56;8.83;;;7.93;;
62693;SDS011;48759;52.544;13.418;2023-06-14T05:16:23;16.00;;;8.93;;
62693;SDS011;48759;52.544;13.418;2023-06-14T05:18:50;10.20;;;8.40;;
62693;SDS011;48759;52.544;13.418;2023-06-14T05:21:17;8.30;;;7.47;;
62693;SDS011;48759;52.544;13.418;2023-06-14T05:23:44;23.30;;;9.97;;
62693;SDS011;48759;52.544;13.418;2023-06-14T05:26:12;9.23;;;8.00;;
62693;SDS011;48759;52.544;13.418;2023-06-14T05:28:39;10.00;;;8.30;;
62693;SDS011;48759;52.544;13.418;2023-06-14T05:31:06;11.13;;;8.37;;
62693;SDS011;48759;52.544;13.418;2023-06-14T05:33:35;12.13;;;8.70;;
62693;SDS011;48759;52.544;13.418;2023-06-14T05:36:02;9.50;;;8.50;;
62693;SDS011;48759;52.544;13.418;2023-06-14T05:38:28;10.93;;;8.73;;
62693;SDS011;48759;52.544;13.418;2023-06-14T05:40:55;13.33;;;9.07;;
62693;SDS011;48759;52.544;13.418;2023-06-14T05:43:23;13.30;;;9.37;;
62693;SDS011;48759;52.544;13.418;2023-06-14T05:45:50;10.40;;;8.00;;
62693;SDS011;48759;52.544;13.418;2023-06-14T05:48:17;15.03;;;9.23;;
62693;SDS011;48759;52.544;13.418;2023-06-14T05:50:44;13.70;;;9.57;;
62693;SDS011;48759;52.544;13.418;2023-06-14T05:53:11;12.67;;;8.50;;
62693;SDS011;48759;52.544;13.418;2023-06-14T05:55:38;10.97;;;8.10;;
62693;SDS011;48759;52.544;13.418;2023-06-14T05:58:07;11.53;;;8.20;;
62693;SDS011;48759;52.544;13.418;2023-06-14T06:00:35;8.90;;;7.97;;
62693;SDS011;48759;52.544;13.418;2023-06-14T06:03:02;12.87;;;8.33;;
62693;SDS011;48759;52.544;13.418;2023-06-14T06:05:33;9.53;;;7.50;;
62693;SDS011;48759;52.544;13.418;2023-06-14T06:08:00;15.10;;;8.40;;
62693;SDS011;48759;52.544;13.418;2023-06-14T06:10:27;10.83;;;7.63;;
62693;SDS011;48759;52.544;13.418;2023-06-14T06:12:55;8.70;;;7.33;;
62693;SDS011;48759;52.544;13.418;2023-06-14T06:15:23;10.73;;;7.67;;
62693;SDS011;48759;52.544;13.418;2023-06-14T06:17:53;12.10;;;7.10;;
62693;SDS011;48759;52.544;13.418;2023-06-14T06:20:20;10.00;;;7.30;;
62693;SDS011;48759;52.544;13.418;2023-06-14T06:22:52;8.40;;;6.60;;
62693;SDS011;48759;52.544;13.418;2023-06-14T06:25:20;8.13;;;6.83;;
62693;SDS011;48759;52.544;13.418;2023-06-14T06:27:47;16.10;;;7.33;;
62693;SDS011;48759;52.544;13.418;2023-06-14T06:30:15;12.90;;;7.47;;
62693;SDS011;48759;52.544;13.418;2023-06-14T06:32:45;13.80;;;8.17;;
62693;SDS011;48759;52.544;13.418;2023-06-14T06:35:14;9.83;;;7.20;;
62693;SDS011;48759;52.544;13.418;2023-06-14T06:37:41;8.30;;;7.17;;
62693;SDS011;48759;52.544;13.418;2023-06-14T06:40:08;10.23;;;6.90;;
62693;SDS011;48759;52.544;13.418;2023-06-14T06:42:38;19.53;;;6.73;;
62693;SDS011;48759;52.544;13.418;2023-06-14T06:45:05;13.30;;;8.50;;
62693;SDS011;48759;52.544;13.418;2023-06-14T06:47:33;11.10;;;7.73;;
62693;SDS011;48759;52.544;13.418;2023-06-14T06:50:00;14.93;;;6.60;;
62693;SDS011;48759;52.544;13.418;2023-06-14T06:52:29;13.67;;;7.63;;
62693;SDS011;48759;52.544;13.418;2023-06-14T06:55:05;8.63;;;6.70;;
62693;SDS011;48759;52.544;13.418;2023-06-14T06:57:33;6.63;;;5.93;;
62693;SDS011;48759;52.544;13.418;2023-06-14T07:00:00;8.63;;;6.77;;
62693;SDS011;48759;52.544;13.418;2023-06-14T07:02:29;15.20;;;7.17;;
62693;SDS011;48759;52.544;13.418;2023-06-14T07:04:57;9.60;;;6.67;;
62693;SDS011;48759;52.544;13.418;2023-06-14T07:07:23;21.27;;;6.37;;
62693;SDS011;48759;52.544;13.418;2023-06-14T07:09:52;6.87;;;6.13;;
62693;SDS011;48759;52.544;13.418;2023-06-14T07:12:19;10.13;;;6.80;;
62693;SDS011;48759;52.544;13.418;2023-06-14T07:14:46;9.40;;;6.10;;
62693;SDS011;48759;52.544;13.418;2023-06-14T07:17:14;12.03;;;7.30;;
62693;SDS011;48759;52.544;13.418;2023-06-14T07:19:41;11.40;;;6.93;;
62693;SDS011;48759;52.544;13.418;2023-06-14T07:22:08;6.90;;;5.83;;
62693;SDS011;48759;52.544;13.418;2023-06-14T07:24:35;13.17;;;6.90;;
62693;SDS011;48759;52.544;13.418;2023-06-14T07:27:04;12.63;;;7.23;;
62693;SDS011;48759;52.544;13.418;2023-06-14T07:29:32;9.50;;;6.70;;
62693;SDS011;48759;52.544;13.418;2023-06-14T07:31:59;14.67;;;7.20;;
62693;SDS011;48759;52.544;13.418;2023-06-14T07:34:26;9.67;;;6.70;;
62693;SDS011;48759;52.544;13.418;2023-06-14T07:36:54;15.63;;;7.20;;
62693;SDS011;48759;52.544;13.418;2023-06-14T07:39:21;9.90;;;6.90;;
62693;SDS011;48759;52.544;13.418;2023-06-14T07:41:48;14.03;;;7.00;;
62693;SDS011;48759;52.544;13.418;2023-06-14T07:44:17;10.80;;;7.20;;
62693;SDS011;48759;52.544;13.418;2023-06-14T07:46:44;10.33;;;6.53;;
62693;SDS011;48759;52.544;13.418;2023-06-14T07:49:15;12.90;;;5.97;;
62693;SDS011;48759;52.544;13.418;2023-06-14T07:51:42;11.50;;;7.20;;
62693;SDS011;48759;52.544;13.418;2023-06-14T07:54:11;14.73;;;6.63;;
62693;SDS011;48759;52.544;13.418;2023-06-14T07:56:39;13.33;;;7.03;;
62693;SDS011;48759;52.544;13.418;2023-06-14T07:59:05;9.50;;;6.17;;
62693;SDS011;48759;52.544;13.418;2023-06-14T08:01:34;11.40;;;6.70;;
62693;SDS011;48759;52.544;13.418;2023-06-14T08:04:13;12.87;;;6.57;;
62693;SDS011;48759;52.544;13.418;2023-06-14T08:06:40;7.47;;;5.90;;
62693;SDS011;48759;52.544;13.418;2023-06-14T08:09:09;11.63;;;5.30;;
62693;SDS011;48759;52.544;13.418;2023-06-14T08:11:37;10.93;;;5.70;;
62693;SDS011;48759;52.544;13.418;2023-06-14T08:14:04;8.67;;;6.10;;
62693;SDS011;48759;52.544;13.418;2023-06-14T08:16:31;10.23;;;5.90;;
62693;SDS011;48759;52.544;13.418;2023-06-14T08:19:00;8.37;;;5.67;;
62693;SDS011;48759;52.544;13.418;2023-06-14T08:21:27;17.20;;;6.00;;
62693;SDS011;48759;52.544;13.418;2023-06-14T08:23:54;11.90;;;5.13;;
62693;SDS011;48759;52.544;13.418;2023-06-14T08:26:29;12.93;;;6.17;;
62693;SDS011;48759;52.544;13.418;2023-06-14T08:29:04;12.67;;;5.97;;
62693;SDS011;48759;52.544;13.418;2023-06-14T08:31:33;10.33;;;5.63;;
62693;SDS011;48759;52.544;13.418;2023-06-14T08:34:02;9.30;;;5.53;;
62693;SDS011;48759;52.544;13.418;2023-06-14T08:36:31;10.23;;;5.67;;
62693;SDS011;48759;52.544;13.418;2023-06-14T08:38:58;12.63;;;6.00;;
62693;SDS011;48759;52.544;13.418;2023-06-14T08:41:25;7.93;;;5.57;;
62693;SDS011;48759;52.544;13.418;2023-06-14T08:43:55;11.00;;;4.87;;
62693;SDS011;48759;52.544;13.418;2023-06-14T08:46:21;12.45;;;5.50;;
62693;SDS011;48759;52.544;13.418;2023-06-14T08:48:52;13.40;;;5.70;;
62693;SDS011;48759;52.544;13.418;2023-06-14T08:51:24;6.33;;;4.70;;
62693;SDS011;48759;52.544;13.418;2023-06-14T08:53:59;8.37;;;5.23;;
62693;SDS011;48759;52.544;13.418;2023-06-14T08:56:29;10.53;;;5.00;;
62693;SDS011;48759;52.544;13.418;2023-06-14T08:58:56;9.00;;;4.70;;
62693;SDS011;48759;52.544;13.418;2023-06-14T09:01:28;5.70;;;4.17;;
62693;SDS011;48759;52.544;13.418;2023-06-14T09:03:56;8.10;;;4.70;;
62693;SDS011;48759;52.544;13.418;2023-06-14T09:06:25;9.50;;;4.80;;
62693;SDS011;48759;52.544;13.418;2023-06-14T09:08:54;8.70;;;4.83;;
62693;SDS011;48759;52.544;13.418;2023-06-14T09:11:22;7.60;;;4.33;;
62693;SDS011;48759;52.544;13.418;2023-06-14T09:13:51;16.53;;;5.20;;
62693;SDS011;48759;52.544;13.418;2023-06-14T09:16:17;11.23;;;5.27;;
62693;SDS011;48759;52.544;13.418;2023-06-14T09:18:45;6.63;;;4.50;;
62693;SDS011;48759;52.544;13.418;2023-06-14T09:21:13;10.43;;;4.70;;
62693;SDS011;48759;52.544;13.418;2023-06-14T09:23:43;13.10;;;4.77;;
62693;SDS011;48759;52.544;13.418;2023-06-14T09:26:11;10.40;;;4.83;;
62693;SDS011;48759;52.544;13.418;2023-06-14T09:28:40;6.90;;;4.50;;
62693;SDS011;48759;52.544;13.418;2023-06-14T09:31:08;12.33;;;5.20;;
62693;SDS011;48759;52.544;13.418;2023-06-14T09:33:36;10.60;;;5.40;;
62693;SDS011;48759;52.544;13.418;2023-06-14T09:36:03;13.40;;;4.83;;
62693;SDS011;48759;52.544;13.418;2023-06-14T09:38:30;15.80;;;5.60;;
62693;SDS011;48759;52.544;13.418;2023-06-14T09:41:00;9.23;;;4.93;;
62693;SDS011;48759;52.544;13.418;2023-06-14T09:43:30;6.50;;;4.87;;
62693;SDS011;48759;52.544;13.418;2023-06-14T09:45:59;6.63;;;4.93;;
62693;SDS011;48759;52.544;13.418;2023-06-14T09:48:26;9.23;;;4.60;;
62693;SDS011;48759;52.544;13.418;2023-06-14T09:50:53;8.33;;;4.60;;
62693;SDS011;48759;52.544;13.418;2023-06-14T09:53:24;7.70;;;4.50;;
62693;SDS011;48759;52.544;13.418;2023-06-14T09:55:52;10.30;;;4.97;;
62693;SDS011;48759;52.544;13.418;2023-06-14T09:58:23;6.53;;;4.13;;
62693;SDS011;48759;52.544;13.418;2023-06-14T10:00:52;7.73;;;4.50;;
62693;SDS011;48759;52.544;13.418;2023-06-14T10:03:21;8.73;;;4.63;;
62693;SDS011;48759;52.544;13.418;2023-06-14T10:05:54;9.37;;;4.57;;
62693;SDS011;48759;52.544;13.418;2023-06-14T10:08:27;4.80;;;4.40;;
62693;SDS011;48759;52.544;13.418;2023-06-14T10:10:55;7.57;;;4.40;;
62693;SDS011;48759;52.544;13.418;2023-06-14T10:13:23;6.13;;;4.40;;
62693;SDS011;48759;52.544;13.418;2023-06-14T10:16:04;9.37;;;5.40;;
62693;SDS011;48759;52.544;13.418;2023-06-14T10:18:40;9.17;;;4.70;;
62693;SDS011;48759;52.544;13.418;2023-06-14T10:21:15;5.53;;;4.60;;
62693;SDS011;48759;52.544;13.418;2023-06-14T10:23:47;5.80;;;4.70;;
62693;SDS011;48759;52.544;13.418;2023-06-14T10:26:20;4.97;;;4.40;;
62693;SDS011;48759;52.544;13.418;2023-06-14T10:28:57;7.83;;;4.13;;
62693;SDS011;48759;52.544;13.418;2023-06-14T10:31:42;8.23;;;4.83;;
62693;SDS011;48759;52.544;13.418;2023-06-14T10:34:11;5.37;;;3.90;;
62693;SDS011;48759;52.544;13.418;2023-06-14T10:36:50;7.87;;;4.57;;
62693;SDS011;48759;52.544;13.418;2023-06-14T10:39:28;6.63;;;4.77;;
62693;SDS011;48759;52.544;13.418;2023-06-14T10:41:56;6.70;;;4.97;;
62693;SDS011;48759;52.544;13.418;2023-06-14T10:47:22;7.10;;;5.00;;
62693;SDS011;48759;52.544;13.418;2023-06-14T10:49:51;7.70;;;4.53;;
62693;SDS011;48759;52.544;13.418;2023-06-14T10:52:26;11.93;;;4.60;;
62693;SDS011;48759;52.544;13.418;2023-06-14T10:55:01;8.70;;;5.20;;
62693;SDS011;48759;52.544;13.418;2023-06-14T10:57:29;13.87;;;5.50;;
62693;SDS011;48759;52.544;13.418;2023-06-14T10:59:59;5.70;;;4.50;;
62693;SDS011;48759;52.544;13.418;2023-06-14T11:02:45;8.00;;;4.77;;
62693;SDS011;48759;52.544;13.418;2023-06-14T11:05:21;13.67;;;5.00;;
62693;SDS011;48759;52.544;13.418;2023-06-14T11:07:55;12.50;;;6.67;;
62693;SDS011;48759;52.544;13.418;2023-06-14T11:10:41;6.27;;;4.90;;
62693;SDS011;48759;52.544;13.418;2023-06-14T11:13:10;9.57;;;5.23;;
62693;SDS011;48759;52.544;13.418;2023-06-14T11:15:39;9.30;;;5.07;;
62693;SDS011;48759;52.544;13.418;2023-06-14T11:18:10;9.30;;;4.73;;
62693;SDS011;48759;52.544;13.418;2023-06-14T11:20:41;8.50;;;4.73;;
62693;SDS011;48759;52.544;13.418;2023-06-14T11:23:09;11.70;;;4.83;;
62693;SDS011;48759;52.544;13.418;2023-06-14T11:25:36;11.60;;;5.40;;
62693;SDS011;48759;52.544;13.418;2023-06-14T11:28:03;6.50;;;4.87;;
62693;SDS011;48759;52.544;13.418;2023-06-14T11:30:30;5.43;;;4.50;;
62693;SDS011;48759;52.544;13.418;2023-06-14T11:32:58;4.93;;;4.43;;
62693;SDS011;48759;52.544;13.418;2023-06-14T11:35:25;5.70;;;4.70;;
62693;SDS011;48759;52.544;13.418;2023-06-14T11:37:52;7.83;;;4.63;;
62693;SDS011;48759;52.544;13.418;2023-06-14T11:40:22;6.43;;;5.17;;
62693;SDS011;48759;52.544;13.418;2023-06-14T11:42:49;8.50;;;4.20;;
62693;SDS011;48759;52.544;13.418;2023-06-14T11:45:24;12.50;;;4.73;;
62693;SDS011;48759;52.544;13.418;2023-06-14T11:47:51;5.80;;;3.83;;
62693;SDS011;48759;52.544;13.418;2023-06-14T11:50:30;6.90;;;5.27;;
62693;SDS011;48759;52.544;13.418;2023-06-14T11:52:59;7.57;;;4.90;;
62693;SDS011;48759;52.544;13.418;2023-06-14T11:55:32;7.27;;;4.60;;
62693;SDS011;48759;52.544;13.418;2023-06-14T11:58:01;8.50;;;5.67;;
62693;SDS011;48759;52.544;13.418;2023-06-14T12:00:28;8.23;;;4.10;;
62693;SDS011;48759;52.544;13.418;2023-06-14T12:02:57;7.33;;;3.70;;
62693;SDS011;48759;52.544;13.418;2023-06-14T12:05:24;10.93;;;4.93;;
62693;SDS011;48759;52.544;13.418;2023-06-14T12:08:00;6.00;;;4.60;;
62693;SDS011;48759;52.544;13.418;2023-06-14T12:10:28;15.23;;;5.00;;
62693;SDS011;48759;52.544;13.418;2023-06-14T12:12:56;10.00;;;5.67;;
62693;SDS011;48759;52.544;13.418;2023-06-14T12:15:28;7.37;;;4.27;;
62693;SDS011;48759;52.544;13.418;2023-06-14T12:17:55;4.83;;;4.23;;
62693;SDS011;48759;52.544;13.418;2023-06-14T12:20:28;6.23;;;4.20;;
62693;SDS011;48759;52.544;13.418;2023-06-14T12:26:04;6.60;;;4.30;;
62693;SDS011;48759;52.544;13.418;2023-06-14T12:28:31;5.53;;;4.57;;
62693;SDS011;48759;52.544;13.418;2023-06-14T12:30:58;8.03;;;4.60;;
62693;SDS011;48759;52.544;13.418;2023-06-14T12:33:25;6.00;;;4.37;;
62693;SDS011;48759;52.544;13.418;2023-06-14T12:35:53;12.03;;;5.67;;
62693;SDS011;48759;52.544;13.418;2023-06-14T12:38:23;5.93;;;4.87;;
62693;SDS011;48759;52.544;13.418;2023-06-14T12:40:50;5.03;;;4.00;;
62693;SDS011;48759;52.544;13.418;2023-06-14T12:43:17;16.87;;;5.13;;
62693;SDS011;48759;52.544;13.418;2023-06-14T12:45:44;6.80;;;4.30;;
62693;SDS011;48759;52.544;13.418;2023-06-14T12:48:11;8.00;;;3.83;;
62693;SDS011;48759;52.544;13.418;2023-06-14T12:50:38;6.37;;;4.17;;
62693;SDS011;48759;52.544;13.418;2023-06-14T12:53:05;8.80;;;5.00;;
62693;SDS011;48759;52.544;13.418;2023-06-14T12:55:33;10.80;;;4.47;;
62693;SDS011;48759;52.544;13.418;2023-06-14T12:58:01;9.40;;;4.90;;
62693;SDS011;48759;52.544;13.418;2023-06-14T13:00:28;6.63;;;4.13;;
62693;SDS011;48759;52.544;13.418;2023-06-14T13:03:01;6.80;;;4.40;;
62693;SDS011;48759;52.544;13.418;2023-06-14T13:05:30;9.43;;;4.43;;
62693;SDS011;48759;52.544;13.418;2023-06-14T13:07:58;10.43;;;4.80;;
62693;SDS011;48759;52.544;13.418;2023-06-14T13:10:25;5.20;;;3.40;;
62693;SDS011;48759;52.544;13.418;2023-06-14T13:12:53;6.97;;;4.40;;
62693;SDS011;48759;52.544;13.418;2023-06-14T13:15:23;5.43;;;4.20;;
62693;SDS011;48759;52.544;13.418;2023-06-14T13:17:49;11.53;;;5.40;;
62693;SDS011;48759;52.544;13.418;2023-06-14T13:20:16;14.50;;;4.00;;
62693;SDS011;48759;52.544;13.418;2023-06-14T13:22:43;14.43;;;4.20;;
62693;SDS011;48759;52.544;13.418;2023-06-14T13:25:09;12.60;;;5.07;;
62693;SDS011;48759;52.544;13.418;2023-06-14T13:27:36;5.63;;;4.30;;
62693;SDS011;48759;52.544;13.418;2023-06-14T13:30:05;17.23;;;4.17;;
62693;SDS011;48759;52.544;13.418;2023-06-14T13:32:34;10.20;;;4.20;;
62693;SDS011;48759;52.544;13.418;2023-06-14T13:35:01;9.53;;;4.17;;
62693;SDS011;48759;52.544;13.418;2023-06-14T13:37:29;4.80;;;3.70;;
62693;SDS011;48759;52.544;13.418;2023-06-14T13:39:55;7.17;;;3.77;;
62693;SDS011;48759;52.544;13.418;2023-06-14T13:42:22;9.00;;;4.00;;
62693;SDS011;48759;52.544;13.418;2023-06-14T13:44:49;11.93;;;4.30;;
62693;SDS011;48759;52.544;13.418;2023-06-14T13:47:18;9.33;;;4.70;;
62693;SDS011;48759;52.544;13.418;2023-06-14T13:49:44;5.77;;;3.97;;
62693;SDS011;48759;52.544;13.418;2023-06-14T13:52:12;9.53;;;3.80;;
62693;SDS011;48759;52.544;13.418;2023-06-14T13:54:38;9.00;;;3.60;;
62693;SDS011;48759;52.544;13.418;2023-06-14T13:57:06;7.33;;;4.03;;
62693;SDS011;48759;52.544;13.418;2023-06-14T13:59:32;6.90;;;3.73;;
62693;SDS011;48759;52.544;13.418;2023-06-14T14:01:59;7.27;;;4.30;;
62693;SDS011;48759;52.544;13.418;2023-06-14T14:04:28;6.43;;;3.40;;
62693;SDS011;48759;52.544;13.418;2023-06-14T14:06:55;7.17;;;3.50;;
62693;SDS011;48759;52.544;13.418;2023-06-14T14:09:21;8.77;;;3.70;;
62693;SDS011;48759;52.544;13.418;2023-06-14T14:11:48;12.23;;;3.70;;
62693;SDS011;48759;52.544;13.418;2023-06-14T14:14:15;7.40;;;3.53;;
62693;SDS011;48759;52.544;13.418;2023-06-14T14:16:42;5.97;;;3.60;;
62693;SDS011;48759;52.544;13.418;2023-06-14T14:19:08;6.07;;;3.87;;
62693;SDS011;48759;52.544;13.418;2023-06-14T14:21:36;12.70;;;3.77;;
62693;SDS011;48759;52.544;13.418;2023-06-14T14:24:03;4.90;;;3.37;;
62693;SDS011;48759;52.544;13.418;2023-06-14T14:26:30;9.30;;;4.40;;
62693;SDS011;48759;52.544;13.418;2023-06-14T14:28:57;12.20;;;3.87;;
62693;SDS011;48759;52.544;13.418;2023-06-14T14:31:23;9.60;;;4.17;;
62693;SDS011;48759;52.544;13.418;2023-06-14T14:33:50;16.40;;;4.47;;
62693;SDS011;48759;52.544;13.418;2023-06-14T14:36:17;4.07;;;3.77;;
62693;SDS011;48759;52.544;13.418;2023-06-14T14:38:45;8.13;;;4.23;;
62693;SDS011;48759;52.544;13.418;2023-06-14T14:41:12;13.87;;;4.20;;